sensor_id;sensor_type;location;lat;lon;timestamp;temperature;humidity
25010;DHT22;13026;49.486;10.926;2022-07-12T00:02:08;15.20;99.70
25010;DHT22;13026;49.486;10.926;2022-07-12T00:04:34;15.20;99.70
25010;DHT22;13026;49.486;10.926;2022-07-12T00:06:59;15.10;99.80
25010;DHT22;13026;49.486;10.926;2022-07-12T00:09:25;15.00;99.90
25010;DHT22;13026;49.486;10.926;2022-07-12T00:11:50;15.00;99.90
25010;DHT22;13026;49.486;10.926;2022-07-12T00:14:16;15.00;99.90
25010;DHT22;13026;49.486;10.926;2022-07-12T00:16:42;15.00;99.90
25010;DHT22;13026;49.486;10.926;2022-07-12T00:19:07;15.00;99.90
25010;DHT22;13026;49.486;10.926;2022-07-12T00:21:33;15.00;99.90
25010;DHT22;13026;49.486;10.926;2022-07-12T00:23:58;15.00;99.90
25010;DHT22;13026;49.486;10.926;2022-07-12T00:26:24;14.90;99.90
25010;DHT22;13026;49.486;10.926;2022-07-12T00:28:50;14.90;99.90
25010;DHT22;13026;49.486;10.926;2022-07-12T00:31:16;14.80;99.90
25010;DHT22;13026;49.486;10.926;2022-07-12T00:33:41;14.70;99.90
25010;DHT22;13026;49.486;10.926;2022-07-12T00:36:07;14.70;99.90
25010;DHT22;13026;49.486;10.926;2022-07-12T00:38:33;14.60;99.90
25010;DHT22;13026;49.486;10.926;2022-07-12T00:40:58;14.60;99.90
25010;DHT22;13026;49.486;10.926;2022-07-12T00:43:24;14.60;99.90
25010;DHT22;13026;49.486;10.926;2022-07-12T00:45:49;14.60;99.90
25010;DHT22;13026;49.486;10.926;2022-07-12T00:48:16;14.60;99.90
25010;DHT22;13026;49.486;10.926;2022-07-12T00:50:44;14.60;99.90
25010;DHT22;13026;49.486;10.926;2022-07-12T00:53:09;14.60;99.90
25010;DHT22;13026;49.486;10.926;2022-07-12T00:55:35;14.50;99.90
25010;DHT22;13026;49.486;10.926;2022-07-12T00:58:00;14.50;99.90
25010;DHT22;13026;49.486;10.926;2022-07-12T01:00:28;14.50;99.90
25010;DHT22;13026;49.486;10.926;2022-07-12T01:02:58;14.40;99.90
25010;DHT22;13026;49.486;10.926;2022-07-12T01:05:27;14.40;99.90
25010;DHT22;13026;49.486;10.926;2022-07-12T01:07:55;14.40;99.90
25010;DHT22;13026;49.486;10.926;2022-07-12T01:10:21;14.30;99.90
25010;DHT22;13026;49.486;10.926;2022-07-12T01:12:46;14.30;99.90
25010;DHT22;13026;49.486;10.926;2022-07-12T01:15:12;14.30;99.90
25010;DHT22;13026;49.486;10.926;2022-07-12T01:17:38;14.30;99.90
25010;DHT22;13026;49.486;10.926;2022-07-12T01:20:05;14.30;99.90
25010;DHT22;13026;49.486;10.926;2022-07-12T01:22:35;14.30;99.90
25010;DHT22;13026;49.486;10.926;2022-07-12T01:25:03;14.30;99.90
25010;DHT22;13026;49.486;10.926;2022-07-12T01:27:29;14.40;99.90
25010;DHT22;13026;49.486;10.926;2022-07-12T01:29:55;14.40;99.90
25010;DHT22;13026;49.486;10.926;2022-07-12T01:32:21;14.40;99.90
25010;DHT22;13026;49.486;10.926;2022-07-12T01:34:49;14.40;99.90
25010;DHT22;13026;49.486;10.926;2022-07-12T01:37:15;14.30;99.90
25010;DHT22;13026;49.486;10.926;2022-07-12T01:39:42;14.30;99.90
25010;DHT22;13026;49.486;10.926;2022-07-12T01:42:08;14.30;99.90
25010;DHT22;13026;49.486;10.926;2022-07-12T01:44:34;14.30;99.90
25010;DHT22;13026;49.486;10.926;2022-07-12T01:46:59;14.20;99.90
25010;DHT22;13026;49.486;10.926;2022-07-12T01:49:25;14.20;99.90
25010;DHT22;13026;49.486;10.926;2022-07-12T01:51:51;14.10;99.90
25010;DHT22;13026;49.486;10.926;2022-07-12T01:54:16;14.10;99.90
25010;DHT22;13026;49.486;10.926;2022-07-12T01:56:43;14.10;99.90
25010;DHT22;13026;49.486;10.926;2022-07-12T01:59:08;14.00;99.90
25010;DHT22;13026;49.486;10.926;2022-07-12T02:01:35;14.00;99.90
25010;DHT22;13026;49.486;10.926;2022-07-12T02:04:05;14.00;99.90
25010;DHT22;13026;49.486;10.926;2022-07-12T02:06:31;14.00;99.90
25010;DHT22;13026;49.486;10.926;2022-07-12T02:08:56;14.00;99.90
25010;DHT22;13026;49.486;10.926;2022-07-12T02:11:22;13.90;99.90
25010;DHT22;13026;49.486;10.926;2022-07-12T02:13:48;13.90;99.90
25010;DHT22;13026;49.486;10.926;2022-07-12T02:16:14;13.90;99.90
25010;DHT22;13026;49.486;10.926;2022-07-12T02:18:40;13.90;99.90
25010;DHT22;13026;49.486;10.926;2022-07-12T02:21:05;13.90;99.90
25010;DHT22;13026;49.486;10.926;2022-07-12T02:23:31;13.90;99.90
25010;DHT22;13026;49.486;10.926;2022-07-12T02:25:56;13.90;99.90
25010;DHT22;13026;49.486;10.926;2022-07-12T02:28:22;13.90;99.90
25010;DHT22;13026;49.486;10.926;2022-07-12T02:30:47;13.80;99.90
25010;DHT22;13026;49.486;10.926;2022-07-12T02:33:13;13.80;99.90
25010;DHT22;13026;49.486;10.926;2022-07-12T02:35:39;13.80;99.90
25010;DHT22;13026;49.486;10.926;2022-07-12T02:38:04;13.80;99.90
25010;DHT22;13026;49.486;10.926;2022-07-12T02:40:30;13.80;99.90
25010;DHT22;13026;49.486;10.926;2022-07-12T02:42:55;13.80;99.90
25010;DHT22;13026;49.486;10.926;2022-07-12T02:45:21;13.80;99.90
25010;DHT22;13026;49.486;10.926;2022-07-12T02:47:46;13.80;99.90
25010;DHT22;13026;49.486;10.926;2022-07-12T02:50:12;13.70;99.90
25010;DHT22;13026;49.486;10.926;2022-07-12T02:52:37;13.70;99.90
25010;DHT22;13026;49.486;10.926;2022-07-12T02:55:03;13.70;99.90
25010;DHT22;13026;49.486;10.926;2022-07-12T02:57:29;13.70;99.90
25010;DHT22;13026;49.486;10.926;2022-07-12T02:59:54;13.70;99.90
25010;DHT22;13026;49.486;10.926;2022-07-12T03:02:19;13.70;99.90
25010;DHT22;13026;49.486;10.926;2022-07-12T03:04:45;13.70;99.90
25010;DHT22;13026;49.486;10.926;2022-07-12T03:07:10;13.70;99.90
25010;DHT22;13026;49.486;10.926;2022-07-12T03:09:36;13.70;99.90
25010;DHT22;13026;49.486;10.926;2022-07-12T03:12:02;13.70;99.90
25010;DHT22;13026;49.486;10.926;2022-07-12T03:14:27;13.70;99.90
25010;DHT22;13026;49.486;10.926;2022-07-12T03:16:53;13.70;99.90
25010;DHT22;13026;49.486;10.926;2022-07-12T03:19:18;13.70;99.90
25010;DHT22;13026;49.486;10.926;2022-07-12T03:21:44;13.70;99.90
25010;DHT22;13026;49.486;10.926;2022-07-12T03:24:09;13.70;99.90
25010;DHT22;13026;49.486;10.926;2022-07-12T03:26:35;13.70;99.90
25010;DHT22;13026;49.486;10.926;2022-07-12T03:29:00;13.70;99.90
25010;DHT22;13026;49.486;10.926;2022-07-12T03:31:26;13.70;99.90
25010;DHT22;13026;49.486;10.926;2022-07-12T03:33:52;13.70;99.90
25010;DHT22;13026;49.486;10.926;2022-07-12T03:36:17;13.70;99.90
25010;DHT22;13026;49.486;10.926;2022-07-12T03:38:43;13.60;99.90
25010;DHT22;13026;49.486;10.926;2022-07-12T03:41:08;13.60;99.90
25010;DHT22;13026;49.486;10.926;2022-07-12T03:43:34;13.60;99.90
25010;DHT22;13026;49.486;10.926;2022-07-12T03:45:59;13.60;99.90
25010;DHT22;13026;49.486;10.926;2022-07-12T03:48:25;13.60;99.90
25010;DHT22;13026;49.486;10.926;2022-07-12T03:50:50;13.60;99.90
25010;DHT22;13026;49.486;10.926;2022-07-12T03:53:16;13.60;99.90
25010;DHT22;13026;49.486;10.926;2022-07-12T03:55:41;13.60;99.90
25010;DHT22;13026;49.486;10.926;2022-07-12T03:58:07;13.60;99.90
25010;DHT22;13026;49.486;10.926;2022-07-12T04:00:32;13.60;99.90
25010;DHT22;13026;49.486;10.926;2022-07-12T04:02:58;13.60;99.90
25010;DHT22;13026;49.486;10.926;2022-07-12T04:05:23;13.60;99.90
25010;DHT22;13026;49.486;10.926;2022-07-12T04:07:49;13.60;99.90
25010;DHT22;13026;49.486;10.926;2022-07-12T04:10:15;13.70;99.90
25010;DHT22;13026;49.486;10.926;2022-07-12T04:12:40;13.70;99.90
25010;DHT22;13026;49.486;10.926;2022-07-12T04:15:06;13.70;99.90
25010;DHT22;13026;49.486;10.926;2022-07-12T04:17:32;13.70;99.90
25010;DHT22;13026;49.486;10.926;2022-07-12T04:19:57;13.80;99.90
25010;DHT22;13026;49.486;10.926;2022-07-12T04:22:23;13.80;99.90
25010;DHT22;13026;49.486;10.926;2022-07-12T04:24:48;13.80;99.90
25010;DHT22;13026;49.486;10.926;2022-07-12T04:27:14;13.90;99.90
25010;DHT22;13026;49.486;10.926;2022-07-12T04:29:39;13.90;99.90
25010;DHT22;13026;49.486;10.926;2022-07-12T04:32:05;14.00;99.90
25010;DHT22;13026;49.486;10.926;2022-07-12T04:34:31;14.00;99.90
25010;DHT22;13026;49.486;10.926;2022-07-12T04:36:56;14.00;99.90
25010;DHT22;13026;49.486;10.926;2022-07-12T04:39:22;14.10;99.90
25010;DHT22;13026;49.486;10.926;2022-07-12T04:41:47;14.10;99.90
25010;DHT22;13026;49.486;10.926;2022-07-12T04:44:13;14.10;99.90
25010;DHT22;13026;49.486;10.926;2022-07-12T04:46:39;14.20;99.90
25010;DHT22;13026;49.486;10.926;2022-07-12T04:49:04;14.20;99.90
25010;DHT22;13026;49.486;10.926;2022-07-12T04:51:30;14.30;99.90
25010;DHT22;13026;49.486;10.926;2022-07-12T04:53:55;14.30;99.90
25010;DHT22;13026;49.486;10.926;2022-07-12T04:56:21;14.30;99.90
25010;DHT22;13026;49.486;10.926;2022-07-12T04:58:47;14.40;99.90
25010;DHT22;13026;49.486;10.926;2022-07-12T05:01:12;14.40;99.90
25010;DHT22;13026;49.486;10.926;2022-07-12T05:03:38;14.50;99.90
25010;DHT22;13026;49.486;10.926;2022-07-12T05:06:03;14.50;99.90
25010;DHT22;13026;49.486;10.926;2022-07-12T05:08:29;14.60;99.90
25010;DHT22;13026;49.486;10.926;2022-07-12T05:10:55;14.60;99.90
25010;DHT22;13026;49.486;10.926;2022-07-12T05:13:20;14.70;99.90
25010;DHT22;13026;49.486;10.926;2022-07-12T05:15:46;14.80;99.90
25010;DHT22;13026;49.486;10.926;2022-07-12T05:18:12;14.80;99.90
25010;DHT22;13026;49.486;10.926;2022-07-12T05:20:38;14.90;99.90
25010;DHT22;13026;49.486;10.926;2022-07-12T05:23:03;15.00;99.90
25010;DHT22;13026;49.486;10.926;2022-07-12T05:25:29;15.00;99.90
25010;DHT22;13026;49.486;10.926;2022-07-12T05:27:55;15.10;99.90
25010;DHT22;13026;49.486;10.926;2022-07-12T05:30:20;15.20;99.90
25010;DHT22;13026;49.486;10.926;2022-07-12T05:32:46;15.20;99.90
25010;DHT22;13026;49.486;10.926;2022-07-12T05:35:13;15.30;99.90
25010;DHT22;13026;49.486;10.926;2022-07-12T05:37:38;15.40;99.90
25010;DHT22;13026;49.486;10.926;2022-07-12T05:40:04;15.50;99.90
25010;DHT22;13026;49.486;10.926;2022-07-12T05:42:30;15.60;99.90
25010;DHT22;13026;49.486;10.926;2022-07-12T05:44:55;15.70;99.90
25010;DHT22;13026;49.486;10.926;2022-07-12T05:47:21;15.80;99.90
25010;DHT22;13026;49.486;10.926;2022-07-12T05:49:46;15.90;99.90
25010;DHT22;13026;49.486;10.926;2022-07-12T05:52:12;15.90;99.90
25010;DHT22;13026;49.486;10.926;2022-07-12T05:54:38;16.00;99.90
25010;DHT22;13026;49.486;10.926;2022-07-12T05:57:05;16.10;99.90
25010;DHT22;13026;49.486;10.926;2022-07-12T05:59:30;16.20;99.90
25010;DHT22;13026;49.486;10.926;2022-07-12T06:01:56;16.30;99.90
25010;DHT22;13026;49.486;10.926;2022-07-12T06:04:21;16.40;99.90
25010;DHT22;13026;49.486;10.926;2022-07-12T06:06:47;16.50;99.90
25010;DHT22;13026;49.486;10.926;2022-07-12T06:09:12;16.60;99.90
25010;DHT22;13026;49.486;10.926;2022-07-12T06:11:38;16.60;99.90
25010;DHT22;13026;49.486;10.926;2022-07-12T06:14:03;16.70;99.90
25010;DHT22;13026;49.486;10.926;2022-07-12T06:16:29;16.80;99.90
25010;DHT22;13026;49.486;10.926;2022-07-12T06:18:54;16.90;99.90
25010;DHT22;13026;49.486;10.926;2022-07-12T06:21:20;17.00;99.90
25010;DHT22;13026;49.486;10.926;2022-07-12T06:23:45;17.10;99.90
25010;DHT22;13026;49.486;10.926;2022-07-12T06:26:11;17.20;99.90
25010;DHT22;13026;49.486;10.926;2022-07-12T06:28:38;17.30;99.90
25010;DHT22;13026;49.486;10.926;2022-07-12T06:31:03;17.30;99.90
25010;DHT22;13026;49.486;10.926;2022-07-12T06:33:29;17.40;99.90
25010;DHT22;13026;49.486;10.926;2022-07-12T06:35:55;17.50;99.90
25010;DHT22;13026;49.486;10.926;2022-07-12T06:38:20;17.60;99.90
25010;DHT22;13026;49.486;10.926;2022-07-12T06:40:45;17.70;99.90
25010;DHT22;13026;49.486;10.926;2022-07-12T06:43:11;17.70;99.90
25010;DHT22;13026;49.486;10.926;2022-07-12T06:45:37;17.90;99.90
25010;DHT22;13026;49.486;10.926;2022-07-12T06:48:05;18.00;99.90
25010;DHT22;13026;49.486;10.926;2022-07-12T06:50:30;18.00;99.90
25010;DHT22;13026;49.486;10.926;2022-07-12T06:52:56;18.10;99.90
25010;DHT22;13026;49.486;10.926;2022-07-12T06:55:21;18.20;99.90
25010;DHT22;13026;49.486;10.926;2022-07-12T06:57:47;18.30;99.90
25010;DHT22;13026;49.486;10.926;2022-07-12T07:00:13;18.40;99.90
25010;DHT22;13026;49.486;10.926;2022-07-12T07:02:38;18.40;99.90
25010;DHT22;13026;49.486;10.926;2022-07-12T07:05:04;18.40;99.90
25010;DHT22;13026;49.486;10.926;2022-07-12T07:07:30;18.50;99.90
25010;DHT22;13026;49.486;10.926;2022-07-12T07:09:55;18.60;99.90
25010;DHT22;13026;49.486;10.926;2022-07-12T07:12:21;18.60;99.90
25010;DHT22;13026;49.486;10.926;2022-07-12T07:14:46;18.80;99.90
25010;DHT22;13026;49.486;10.926;2022-07-12T07:17:17;18.90;99.90
25010;DHT22;13026;49.486;10.926;2022-07-12T07:19:43;19.00;99.80
25010;DHT22;13026;49.486;10.926;2022-07-12T07:22:08;19.00;99.40
25010;DHT22;13026;49.486;10.926;2022-07-12T07:24:34;19.10;99.40
25010;DHT22;13026;49.486;10.926;2022-07-12T07:26:59;19.10;99.40
25010;DHT22;13026;49.486;10.926;2022-07-12T07:29:25;19.10;99.20
25010;DHT22;13026;49.486;10.926;2022-07-12T07:31:50;19.20;99.20
25010;DHT22;13026;49.486;10.926;2022-07-12T07:34:16;19.20;98.70
25010;DHT22;13026;49.486;10.926;2022-07-12T07:36:41;19.20;98.60
25010;DHT22;13026;49.486;10.926;2022-07-12T07:39:07;19.20;98.40
25010;DHT22;13026;49.486;10.926;2022-07-12T07:41:32;19.30;98.20
25010;DHT22;13026;49.486;10.926;2022-07-12T07:43:58;19.40;98.00
25010;DHT22;13026;49.486;10.926;2022-07-12T07:46:23;19.50;97.90
25010;DHT22;13026;49.486;10.926;2022-07-12T07:48:49;19.60;97.90
25010;DHT22;13026;49.486;10.926;2022-07-12T07:51:14;19.80;98.30
25010;DHT22;13026;49.486;10.926;2022-07-12T07:53:40;19.90;97.30
25010;DHT22;13026;49.486;10.926;2022-07-12T07:56:07;20.00;97.10
25010;DHT22;13026;49.486;10.926;2022-07-12T07:58:32;20.20;97.00
25010;DHT22;13026;49.486;10.926;2022-07-12T08:00:58;20.50;96.30
25010;DHT22;13026;49.486;10.926;2022-07-12T08:03:23;20.70;95.70
25010;DHT22;13026;49.486;10.926;2022-07-12T08:05:49;20.80;95.60
25010;DHT22;13026;49.486;10.926;2022-07-12T08:08:14;21.10;95.20
25010;DHT22;13026;49.486;10.926;2022-07-12T08:10:40;21.20;94.50
25010;DHT22;13026;49.486;10.926;2022-07-12T08:13:06;21.40;94.00
25010;DHT22;13026;49.486;10.926;2022-07-12T08:15:31;21.30;93.30
25010;DHT22;13026;49.486;10.926;2022-07-12T08:17:57;21.20;93.00
25010;DHT22;13026;49.486;10.926;2022-07-12T08:20:24;21.10;92.90
25010;DHT22;13026;49.486;10.926;2022-07-12T08:22:49;21.20;92.70
25010;DHT22;13026;49.486;10.926;2022-07-12T08:25:15;21.50;93.10
25010;DHT22;13026;49.486;10.926;2022-07-12T08:27:41;21.80;92.60
25010;DHT22;13026;49.486;10.926;2022-07-12T08:30:07;22.00;92.20
25010;DHT22;13026;49.486;10.926;2022-07-12T08:32:33;22.40;91.50
25010;DHT22;13026;49.486;10.926;2022-07-12T08:34:58;22.50;90.70
25010;DHT22;13026;49.486;10.926;2022-07-12T08:37:24;22.60;90.90
25010;DHT22;13026;49.486;10.926;2022-07-12T08:39:49;22.60;89.20
25010;DHT22;13026;49.486;10.926;2022-07-12T08:42:16;22.70;87.30
25010;DHT22;13026;49.486;10.926;2022-07-12T08:44:43;22.70;86.30
25010;DHT22;13026;49.486;10.926;2022-07-12T08:47:09;22.60;86.40
25010;DHT22;13026;49.486;10.926;2022-07-12T08:49:36;22.50;87.10
25010;DHT22;13026;49.486;10.926;2022-07-12T08:52:27;22.40;87.20
25010;DHT22;13026;49.486;10.926;2022-07-12T08:54:52;22.30;86.60
25010;DHT22;13026;49.486;10.926;2022-07-12T08:57:31;22.20;86.30
25010;DHT22;13026;49.486;10.926;2022-07-12T09:00:00;22.30;87.40
25010;DHT22;13026;49.486;10.926;2022-07-12T09:02:26;22.50;87.20
25010;DHT22;13026;49.486;10.926;2022-07-12T09:05:07;22.60;86.20
25010;DHT22;13026;49.486;10.926;2022-07-12T09:07:36;22.60;86.80
25010;DHT22;13026;49.486;10.926;2022-07-12T09:10:07;22.70;84.90
25010;DHT22;13026;49.486;10.926;2022-07-12T09:12:34;22.80;83.50
25010;DHT22;13026;49.486;10.926;2022-07-12T09:20:28;22.60;83.40
25010;DHT22;13026;49.486;10.926;2022-07-12T09:22:57;22.70;81.60
25010;DHT22;13026;49.486;10.926;2022-07-12T09:25:24;22.80;80.90
25010;DHT22;13026;49.486;10.926;2022-07-12T09:27:57;22.90;81.30
25010;DHT22;13026;49.486;10.926;2022-07-12T09:30:24;23.10;79.50
25010;DHT22;13026;49.486;10.926;2022-07-12T09:33:00;23.10;78.80
25010;DHT22;13026;49.486;10.926;2022-07-12T09:35:26;22.80;78.60
25010;DHT22;13026;49.486;10.926;2022-07-12T09:37:52;22.50;78.60
25010;DHT22;13026;49.486;10.926;2022-07-12T09:40:17;22.20;77.80
25010;DHT22;13026;49.486;10.926;2022-07-12T09:42:43;22.20;78.30
25010;DHT22;13026;49.486;10.926;2022-07-12T09:45:09;22.40;77.90
25010;DHT22;13026;49.486;10.926;2022-07-12T09:47:35;22.60;77.50
25010;DHT22;13026;49.486;10.926;2022-07-12T09:50:01;22.80;75.60
25010;DHT22;13026;49.486;10.926;2022-07-12T09:52:27;22.80;75.30
25010;DHT22;13026;49.486;10.926;2022-07-12T09:54:55;22.90;75.30
25010;DHT22;13026;49.486;10.926;2022-07-12T09:57:31;23.10;74.80
25010;DHT22;13026;49.486;10.926;2022-07-12T09:59:58;23.30;73.90
25010;DHT22;13026;49.486;10.926;2022-07-12T10:02:24;23.30;71.20
25010;DHT22;13026;49.486;10.926;2022-07-12T10:04:50;23.10;70.50
25010;DHT22;13026;49.486;10.926;2022-07-12T10:07:16;23.10;70.10
25010;DHT22;13026;49.486;10.926;2022-07-12T10:09:52;23.30;69.80
25010;DHT22;13026;49.486;10.926;2022-07-12T10:12:20;23.40;69.40
25010;DHT22;13026;49.486;10.926;2022-07-12T10:14:46;23.60;70.10
25010;DHT22;13026;49.486;10.926;2022-07-12T10:17:21;23.80;70.40
25010;DHT22;13026;49.486;10.926;2022-07-12T10:19:47;23.90;69.40
25010;DHT22;13026;49.486;10.926;2022-07-12T10:22:20;23.80;69.40
25010;DHT22;13026;49.486;10.926;2022-07-12T10:24:46;23.40;69.40
25010;DHT22;13026;49.486;10.926;2022-07-12T10:29:45;23.20;70.30
25010;DHT22;13026;49.486;10.926;2022-07-12T10:32:24;23.20;68.60
25010;DHT22;13026;49.486;10.926;2022-07-12T10:35:13;23.40;67.40
25010;DHT22;13026;49.486;10.926;2022-07-12T10:37:39;23.60;65.50
25010;DHT22;13026;49.486;10.926;2022-07-12T10:40:19;23.70;64.80
25010;DHT22;13026;49.486;10.926;2022-07-12T10:45:33;24.00;64.60
25010;DHT22;13026;49.486;10.926;2022-07-12T10:48:01;24.10;64.70
25010;DHT22;13026;49.486;10.926;2022-07-12T10:58:30;24.40;63.30
25010;DHT22;13026;49.486;10.926;2022-07-12T11:00:57;24.50;64.10
25010;DHT22;13026;49.486;10.926;2022-07-12T11:03:23;24.70;63.10
25010;DHT22;13026;49.486;10.926;2022-07-12T11:05:52;24.70;63.00
25010;DHT22;13026;49.486;10.926;2022-07-12T11:08:17;24.70;63.40
25010;DHT22;13026;49.486;10.926;2022-07-12T11:10:56;24.30;63.10
25010;DHT22;13026;49.486;10.926;2022-07-12T11:13:25;24.10;63.60
25010;DHT22;13026;49.486;10.926;2022-07-12T11:16:00;24.10;64.20
25010;DHT22;13026;49.486;10.926;2022-07-12T11:18:30;24.30;63.20
25010;DHT22;13026;49.486;10.926;2022-07-12T11:21:00;24.40;63.50
25010;DHT22;13026;49.486;10.926;2022-07-12T11:23:27;24.50;61.60
25010;DHT22;13026;49.486;10.926;2022-07-12T11:25:54;24.70;60.60
25010;DHT22;13026;49.486;10.926;2022-07-12T11:28:20;24.80;59.50
25010;DHT22;13026;49.486;10.926;2022-07-12T11:30:53;24.90;58.60
25010;DHT22;13026;49.486;10.926;2022-07-12T11:33:24;24.90;58.20
25010;DHT22;13026;49.486;10.926;2022-07-12T11:35:51;25.00;58.30
25010;DHT22;13026;49.486;10.926;2022-07-12T11:38:26;25.20;57.90
25010;DHT22;13026;49.486;10.926;2022-07-12T11:40:56;25.40;57.20
25010;DHT22;13026;49.486;10.926;2022-07-12T11:43:22;25.50;56.40
25010;DHT22;13026;49.486;10.926;2022-07-12T11:45:47;25.60;56.80
25010;DHT22;13026;49.486;10.926;2022-07-12T11:48:13;25.60;56.90
25010;DHT22;13026;49.486;10.926;2022-07-12T11:50:42;25.70;56.30
25010;DHT22;13026;49.486;10.926;2022-07-12T11:53:22;25.70;54.50
25010;DHT22;13026;49.486;10.926;2022-07-12T11:55:49;25.70;54.70
25010;DHT22;13026;49.486;10.926;2022-07-12T11:58:17;25.80;57.00
25010;DHT22;13026;49.486;10.926;2022-07-12T12:00:44;26.00;56.60
25010;DHT22;13026;49.486;10.926;2022-07-12T12:03:10;26.10;56.10
25010;DHT22;13026;49.486;10.926;2022-07-12T12:05:36;26.10;55.00
25010;DHT22;13026;49.486;10.926;2022-07-12T12:08:04;26.20;53.30
25010;DHT22;13026;49.486;10.926;2022-07-12T12:10:29;26.20;52.60
25010;DHT22;13026;49.486;10.926;2022-07-12T12:12:56;26.30;53.10
25010;DHT22;13026;49.486;10.926;2022-07-12T12:15:28;26.30;54.10
25010;DHT22;13026;49.486;10.926;2022-07-12T12:18:02;26.50;53.20
25010;DHT22;13026;49.486;10.926;2022-07-12T12:20:32;26.50;52.20
25010;DHT22;13026;49.486;10.926;2022-07-12T12:22:58;26.50;52.70
25010;DHT22;13026;49.486;10.926;2022-07-12T12:25:26;26.50;52.10
25010;DHT22;13026;49.486;10.926;2022-07-12T12:28:03;26.40;52.50
25010;DHT22;13026;49.486;10.926;2022-07-12T12:30:30;26.50;53.70
25010;DHT22;13026;49.486;10.926;2022-07-12T12:32:58;26.70;53.00
25010;DHT22;13026;49.486;10.926;2022-07-12T12:35:30;27.00;52.10
25010;DHT22;13026;49.486;10.926;2022-07-12T12:37:58;27.10;51.30
25010;DHT22;13026;49.486;10.926;2022-07-12T12:40:26;27.20;50.70
25010;DHT22;13026;49.486;10.926;2022-07-12T12:42:52;27.10;51.20
25010;DHT22;13026;49.486;10.926;2022-07-12T12:45:23;27.20;51.00
25010;DHT22;13026;49.486;10.926;2022-07-12T12:48:03;27.20;49.80
25010;DHT22;13026;49.486;10.926;2022-07-12T12:50:36;27.10;50.00
25010;DHT22;13026;49.486;10.926;2022-07-12T12:53:13;27.00;50.40
25010;DHT22;13026;49.486;10.926;2022-07-12T12:55:40;27.10;49.80
25010;DHT22;13026;49.486;10.926;2022-07-12T12:58:06;27.30;50.00
25010;DHT22;13026;49.486;10.926;2022-07-12T13:00:33;27.60;51.80
25010;DHT22;13026;49.486;10.926;2022-07-12T13:02:59;27.90;48.60
25010;DHT22;13026;49.486;10.926;2022-07-12T13:05:29;27.70;48.50
25010;DHT22;13026;49.486;10.926;2022-07-12T13:07:55;27.80;50.60
25010;DHT22;13026;49.486;10.926;2022-07-12T13:10:21;27.90;48.50
25010;DHT22;13026;49.486;10.926;2022-07-12T13:12:47;28.00;48.60
25010;DHT22;13026;49.486;10.926;2022-07-12T13:15:13;28.10;48.20
25010;DHT22;13026;49.486;10.926;2022-07-12T13:17:38;28.00;48.90
25010;DHT22;13026;49.486;10.926;2022-07-12T13:20:05;28.00;48.30
25010;DHT22;13026;49.486;10.926;2022-07-12T13:22:30;28.00;48.00
25010;DHT22;13026;49.486;10.926;2022-07-12T13:24:56;27.90;48.50
25010;DHT22;13026;49.486;10.926;2022-07-12T13:27:21;27.90;47.90
25010;DHT22;13026;49.486;10.926;2022-07-12T13:29:47;27.90;48.00
25010;DHT22;13026;49.486;10.926;2022-07-12T13:32:12;28.00;48.20
25010;DHT22;13026;49.486;10.926;2022-07-12T13:34:38;28.30;48.60
25010;DHT22;13026;49.486;10.926;2022-07-12T13:37:04;28.50;48.00
25010;DHT22;13026;49.486;10.926;2022-07-12T13:39:30;28.60;47.60
25010;DHT22;13026;49.486;10.926;2022-07-12T13:41:55;28.60;46.30
25010;DHT22;13026;49.486;10.926;2022-07-12T13:44:21;28.50;45.60
25010;DHT22;13026;49.486;10.926;2022-07-12T13:46:46;28.40;45.50
25010;DHT22;13026;49.486;10.926;2022-07-12T13:49:12;28.40;46.10
25010;DHT22;13026;49.486;10.926;2022-07-12T13:51:37;28.60;46.00
25010;DHT22;13026;49.486;10.926;2022-07-12T13:54:03;28.80;46.40
25010;DHT22;13026;49.486;10.926;2022-07-12T13:56:28;28.80;46.20
25010;DHT22;13026;49.486;10.926;2022-07-12T13:58:54;28.80;45.80
25010;DHT22;13026;49.486;10.926;2022-07-12T14:01:20;28.80;46.40
25010;DHT22;13026;49.486;10.926;2022-07-12T14:03:45;29.00;45.60
25010;DHT22;13026;49.486;10.926;2022-07-12T14:06:11;29.00;45.60
25010;DHT22;13026;49.486;10.926;2022-07-12T14:08:36;29.10;45.80
25010;DHT22;13026;49.486;10.926;2022-07-12T14:11:02;29.20;44.70
25010;DHT22;13026;49.486;10.926;2022-07-12T14:13:27;29.30;44.50
25010;DHT22;13026;49.486;10.926;2022-07-12T14:15:53;29.50;44.00
25010;DHT22;13026;49.486;10.926;2022-07-12T14:18:18;29.60;43.80
25010;DHT22;13026;49.486;10.926;2022-07-12T14:20:44;29.60;43.00
25010;DHT22;13026;49.486;10.926;2022-07-12T14:23:09;29.50;44.00
25010;DHT22;13026;49.486;10.926;2022-07-12T14:25:35;29.60;43.60
25010;DHT22;13026;49.486;10.926;2022-07-12T14:28:01;29.80;43.80
25010;DHT22;13026;49.486;10.926;2022-07-12T14:30:26;29.90;44.00
25010;DHT22;13026;49.486;10.926;2022-07-12T14:32:52;29.80;43.20
25010;DHT22;13026;49.486;10.926;2022-07-12T14:35:17;29.70;43.60
25010;DHT22;13026;49.486;10.926;2022-07-12T14:37:43;29.90;43.50
25010;DHT22;13026;49.486;10.926;2022-07-12T14:40:09;30.20;42.80
25010;DHT22;13026;49.486;10.926;2022-07-12T14:42:34;30.20;42.40
25010;DHT22;13026;49.486;10.926;2022-07-12T14:45:00;30.30;41.70
25010;DHT22;13026;49.486;10.926;2022-07-12T14:47:25;30.30;41.80
25010;DHT22;13026;49.486;10.926;2022-07-12T14:49:51;30.30;42.10
25010;DHT22;13026;49.486;10.926;2022-07-12T14:52:17;30.50;42.90
25010;DHT22;13026;49.486;10.926;2022-07-12T14:54:42;30.70;41.60
25010;DHT22;13026;49.486;10.926;2022-07-12T14:57:08;30.80;41.10
25010;DHT22;13026;49.486;10.926;2022-07-12T14:59:33;30.90;41.10
25010;DHT22;13026;49.486;10.926;2022-07-12T15:01:59;31.00;41.70
25010;DHT22;13026;49.486;10.926;2022-07-12T15:04:24;31.20;40.80
25010;DHT22;13026;49.486;10.926;2022-07-12T15:06:50;31.40;40.70
25010;DHT22;13026;49.486;10.926;2022-07-12T15:09:16;31.60;40.20
25010;DHT22;13026;49.486;10.926;2022-07-12T15:11:41;31.80;40.90
25010;DHT22;13026;49.486;10.926;2022-07-12T15:14:07;31.90;39.50
25010;DHT22;13026;49.486;10.926;2022-07-12T15:16:32;31.90;39.20
25010;DHT22;13026;49.486;10.926;2022-07-12T15:18:58;32.20;39.70
25010;DHT22;13026;49.486;10.926;2022-07-12T15:21:24;32.50;38.90
25010;DHT22;13026;49.486;10.926;2022-07-12T15:23:50;32.80;37.70
25010;DHT22;13026;49.486;10.926;2022-07-12T15:26:15;33.00;37.20
25010;DHT22;13026;49.486;10.926;2022-07-12T15:28:58;33.10;36.20
25010;DHT22;13026;49.486;10.926;2022-07-12T15:31:26;34.50;34.10